createdAt,value
2023-04-22T00:00:17.069Z,9.40
2023-04-22T00:02:46.882Z,9.39
2023-04-22T00:05:17.193Z,9.37
2023-04-22T00:07:48.496Z,9.32
2023-04-22T00:10:16.352Z,9.28
2023-04-22T00:12:44.340Z,9.23
2023-04-22T00:15:12.583Z,9.18
2023-04-22T00:17:41.171Z,9.14
2023-04-22T00:20:11.401Z,9.10
2023-04-22T00:22:39.496Z,9.08
2023-04-22T00:25:07.782Z,9.09
2023-04-22T00:27:36.288Z,9.10
2023-04-22T00:30:04.936Z,9.14
2023-04-22T00:32:33.186Z,9.15
2023-04-22T00:35:01.165Z,9.13
2023-04-22T00:37:29.466Z,9.10
2023-04-22T00:39:58.169Z,9.06
2023-04-22T00:42:26.539Z,9.02
2023-04-22T00:44:54.590Z,8.99
2023-04-22T00:47:27.018Z,8.96
2023-04-22T00:49:55.197Z,8.96
2023-04-22T00:52:23.156Z,8.96
2023-04-22T00:54:53.690Z,8.96
2023-04-22T00:57:21.894Z,8.96
2023-04-22T00:59:50.694Z,8.94
2023-04-22T01:02:19.390Z,8.93
2023-04-22T01:04:47.592Z,8.92
2023-04-22T01:07:15.933Z,8.91
2023-04-22T01:09:43.983Z,8.90
2023-04-22T01:12:12.034Z,8.89
2023-04-22T01:14:40.058Z,8.88
2023-04-22T01:17:10.242Z,8.90
2023-04-22T01:19:38.642Z,8.92
2023-04-22T01:22:08.175Z,8.93
2023-04-22T01:24:36.630Z,8.93
2023-04-22T01:27:04.986Z,8.91
2023-04-22T01:29:33.940Z,8.90
2023-04-22T01:32:03.123Z,8.86
2023-04-22T01:34:31.966Z,8.82
2023-04-22T01:37:00.340Z,8.77
2023-04-22T01:39:29.207Z,8.72
2023-04-22T01:41:58.557Z,8.68
2023-04-22T01:44:27.055Z,8.65
2023-04-22T01:46:57.084Z,8.62
2023-04-22T01:49:25.167Z,8.60
2023-04-22T01:51:53.210Z,8.60
2023-04-22T01:54:21.272Z,8.62
2023-04-22T01:56:52.783Z,8.65
2023-04-22T01:59:21.546Z,8.65
2023-04-22T02:01:50.551Z,8.66
2023-04-22T02:04:19.115Z,8.67
2023-04-22T02:06:47.047Z,8.65
2023-04-22T02:09:14.911Z,8.62
2023-04-22T02:11:43.747Z,8.59
2023-04-22T02:14:11.801Z,8.56
2023-04-22T02:16:41.099Z,8.52
2023-04-22T02:19:08.983Z,8.47
2023-04-22T02:21:36.866Z,8.43
2023-04-22T02:24:04.990Z,8.39
2023-04-22T02:26:32.980Z,8.37
2023-04-22T02:29:01.395Z,8.34
2023-04-22T02:31:29.747Z,8.30
2023-04-22T02:33:58.221Z,8.26
2023-04-22T02:36:27.803Z,8.22
2023-04-22T02:38:56.431Z,8.21
2023-04-22T02:41:24.473Z,8.21
2023-04-22T02:43:52.540Z,8.22
2023-04-22T02:46:21.015Z,8.21
2023-04-22T02:48:49.691Z,8.18
2023-04-22T02:51:17.756Z,8.15
2023-04-22T02:53:45.799Z,8.13
2023-04-22T02:56:13.755Z,8.09
2023-04-22T02:58:42.303Z,8.05
2023-04-22T03:01:10.449Z,8.01
2023-04-22T03:03:39.229Z,7.97
2023-04-22T03:06:08.006Z,7.93
2023-04-22T03:08:35.978Z,7.88
2023-04-22T03:11:04.793Z,7.85
2023-04-22T03:13:32.775Z,7.82
2023-04-22T03:16:00.702Z,7.78
2023-04-22T03:18:29.426Z,7.75
2023-04-22T03:20:57.479Z,7.72
2023-04-22T03:23:25.499Z,7.71
2023-04-22T03:25:53.665Z,7.69
2023-04-22T03:28:21.712Z,7.70
2023-04-22T03:30:50.787Z,7.71
2023-04-22T03:33:19.145Z,7.74
2023-04-22T03:35:55.197Z,7.78
2023-04-22T03:38:23.461Z,7.81
2023-04-22T03:40:52.117Z,7.82
2023-04-22T03:43:27.291Z,7.82
2023-04-22T03:46:01.052Z,7.82
2023-04-22T03:48:35.981Z,7.81
2023-04-22T03:51:08.407Z,7.81
2023-04-22T03:53:37.692Z,7.81
2023-04-22T03:56:06.038Z,7.81
2023-04-22T03:58:37.040Z,7.81
2023-04-22T04:01:07.972Z,7.82
2023-04-22T04:03:37.163Z,7.84
2023-04-22T04:06:05.940Z,7.86
2023-04-22T04:08:34.226Z,7.87
2023-04-22T04:11:02.548Z,7.89
2023-04-22T04:13:32.592Z,7.93
2023-04-22T04:16:20.921Z,7.96
2023-04-22T04:18:53.428Z,7.99
2023-04-22T04:21:22.080Z,8.02
2023-04-22T04:23:51.976Z,8.05
2023-04-22T04:26:24.128Z,8.08
2023-04-22T04:28:55.957Z,8.13
2023-04-22T04:31:25.180Z,8.17
2023-04-22T04:33:53.782Z,8.22
2023-04-22T04:36:22.081Z,8.27
2023-04-22T04:38:52.061Z,8.33
2023-04-22T04:41:23.521Z,8.38
2023-04-22T04:43:51.942Z,8.43
2023-04-22T04:46:29.928Z,8.49
2023-04-22T04:48:58.920Z,8.54
2023-04-22T04:51:27.756Z,8.59
2023-04-22T04:53:58.341Z,8.66
2023-04-22T04:56:27.928Z,8.73
2023-04-22T04:58:56.441Z,8.80
2023-04-22T05:01:26.622Z,8.87
2023-04-22T05:03:55.636Z,8.94
2023-04-22T05:06:24.013Z,9.01
2023-04-22T05:08:59.568Z,9.09
2023-04-22T05:11:27.710Z,9.17
2023-04-22T05:13:57.804Z,9.26
2023-04-22T05:16:33.119Z,9.33
2023-04-22T05:19:01.933Z,9.41
2023-04-22T05:21:31.599Z,9.48
2023-04-22T05:24:00.097Z,9.55
2023-04-22T05:26:28.571Z,9.60
2023-04-22T05:28:56.735Z,9.66
2023-04-22T05:31:24.947Z,9.72
2023-04-22T05:33:53.005Z,9.78
2023-04-22T05:36:21.855Z,9.84
2023-04-22T05:38:50.110Z,9.90
2023-04-22T05:41:18.124Z,9.96
2023-04-22T05:43:46.534Z,10.02
2023-04-22T05:46:17.658Z,10.07
2023-04-22T05:48:46.333Z,10.13
2023-04-22T05:51:37.345Z,10.20
2023-04-22T05:54:05.340Z,10.27
2023-04-22T05:56:33.884Z,10.33
2023-04-22T05:59:02.260Z,10.40
2023-04-22T06:01:32.102Z,10.47
2023-04-22T06:04:05.699Z,10.56
2023-04-22T06:06:34.080Z,10.64
2023-04-22T06:09:02.230Z,10.72
2023-04-22T06:11:30.405Z,10.79
2023-04-22T06:13:58.419Z,10.88
2023-04-22T06:16:26.807Z,10.97
2023-04-22T06:18:54.937Z,11.06
2023-04-22T06:21:23.635Z,11.14
2023-04-22T06:23:51.541Z,11.23
2023-04-22T06:26:19.656Z,11.31
2023-04-22T06:28:51.004Z,11.40
2023-04-22T06:31:21.334Z,11.48
2023-04-22T06:33:49.639Z,11.57
2023-04-22T06:36:18.855Z,11.65
2023-04-22T06:38:51.684Z,11.74
2023-04-22T06:41:44.616Z,11.84
2023-04-22T06:44:42.126Z,11.95
2023-04-22T06:47:34.173Z,12.04
2023-04-22T06:50:15.717Z,12.13
2023-04-22T06:52:51.574Z,12.25
2023-04-22T06:55:19.783Z,12.35
2023-04-22T06:57:47.842Z,12.46
2023-04-22T07:00:16.399Z,12.56
2023-04-22T07:02:44.543Z,12.63
2023-04-22T07:05:12.929Z,12.69
2023-04-22T07:07:41.856Z,12.76
2023-04-22T07:10:11.852Z,12.83
2023-04-22T07:12:43.237Z,12.87
2023-04-22T07:15:11.310Z,12.92
2023-04-22T07:17:39.417Z,13.00
2023-04-22T07:20:07.920Z,13.10
2023-04-22T07:22:35.979Z,13.21
2023-04-22T07:25:04.174Z,13.32
2023-04-22T07:27:32.413Z,13.41
2023-04-22T07:30:00.429Z,13.50
2023-04-22T07:32:28.510Z,13.58
2023-04-22T07:34:56.626Z,13.67
2023-04-22T07:37:24.848Z,13.77
2023-04-22T07:39:52.760Z,13.86
2023-04-22T07:42:20.863Z,13.95
2023-04-22T07:44:49.621Z,14.04
2023-04-22T07:47:17.792Z,14.12
2023-04-22T07:49:45.779Z,14.21
2023-04-22T07:52:13.906Z,14.29
2023-04-22T07:54:42.114Z,14.39
2023-04-22T07:57:10.328Z,14.46
2023-04-22T07:59:38.579Z,14.49
2023-04-22T08:02:07.922Z,14.53
2023-04-22T08:04:37.228Z,14.57
2023-04-22T08:07:17.108Z,14.63
2023-04-22T08:09:53.968Z,14.71
2023-04-22T08:12:22.548Z,14.72
2023-04-22T08:14:50.821Z,14.72
2023-04-22T08:17:22.169Z,14.71
2023-04-22T08:19:50.650Z,14.74
2023-04-22T08:22:19.082Z,14.79
2023-04-22T08:24:47.187Z,14.85
2023-04-22T08:27:15.378Z,14.86
2023-04-22T08:29:43.630Z,14.92
2023-04-22T08:32:12.078Z,14.99
2023-04-22T08:34:40.390Z,15.07
2023-04-22T08:37:09.252Z,15.12
2023-04-22T08:39:37.359Z,15.09
2023-04-22T08:42:05.554Z,15.08
2023-04-22T08:44:34.497Z,15.11
2023-04-22T08:47:03.625Z,15.16
2023-04-22T08:49:32.251Z,15.24
2023-04-22T08:52:00.565Z,15.34
2023-04-22T08:54:28.912Z,15.42
2023-04-22T08:56:57.140Z,15.46
2023-04-22T08:59:25.375Z,15.48
2023-04-22T09:01:56.577Z,15.50
2023-04-22T09:04:24.965Z,15.54
2023-04-22T09:06:53.082Z,15.60
2023-04-22T09:09:21.274Z,15.69
2023-04-22T09:11:49.353Z,15.80
2023-04-22T09:14:17.746Z,15.90
2023-04-22T09:16:48.970Z,15.96
2023-04-22T09:19:17.222Z,15.99
2023-04-22T09:21:46.506Z,16.04
2023-04-22T09:24:16.482Z,16.11
2023-04-22T09:26:44.539Z,16.17
2023-04-22T09:29:15.994Z,16.23
2023-04-22T09:31:52.893Z,16.27
2023-04-22T09:34:21.981Z,16.33
2023-04-22T09:36:50.590Z,16.41
2023-04-22T09:39:18.612Z,16.51
2023-04-22T09:41:46.647Z,16.59
2023-04-22T09:44:15.344Z,16.60
2023-04-22T09:46:43.781Z,16.60
2023-04-22T09:49:11.953Z,16.58
2023-04-22T09:51:40.338Z,16.59
2023-04-22T09:54:11.802Z,16.62
2023-04-22T09:56:46.826Z,16.67
2023-04-22T09:59:24.706Z,16.67
2023-04-22T10:01:53.363Z,16.72
2023-04-22T10:04:21.871Z,16.76
2023-04-22T10:06:50.168Z,16.77
2023-04-22T10:09:19.789Z,16.75
2023-04-22T10:11:48.388Z,16.73
2023-04-22T10:14:16.581Z,16.74
2023-04-22T10:16:46.378Z,16.76
2023-04-22T10:19:16.636Z,16.84
2023-04-22T10:21:44.982Z,16.91
2023-04-22T10:24:18.073Z,16.99
2023-04-22T10:26:50.061Z,17.06
2023-04-22T10:29:18.747Z,17.12
2023-04-22T10:32:16.356Z,17.16
2023-04-22T10:34:44.931Z,17.16
2023-04-22T10:37:13.613Z,17.15
2023-04-22T10:39:43.321Z,17.13
2023-04-22T10:42:12.179Z,17.15
2023-04-22T10:44:46.508Z,17.16
2023-04-22T10:47:34.736Z,17.19
2023-04-22T10:50:22.519Z,17.21
2023-04-22T10:52:57.363Z,17.25
2023-04-22T10:55:26.123Z,17.25
2023-04-22T10:57:55.416Z,17.21
2023-04-22T11:00:25.678Z,17.16
2023-04-22T11:03:06.171Z,17.17
2023-04-22T11:05:36.198Z,17.22
2023-04-22T11:08:24.049Z,17.24
2023-04-22T11:10:52.249Z,17.39
2023-04-22T11:13:21.527Z,17.58
2023-04-22T11:15:50.200Z,17.82
2023-04-22T11:18:25.263Z,17.97
2023-04-22T11:20:53.798Z,18.02
2023-04-22T11:23:25.792Z,18.02
2023-04-22T11:25:54.359Z,17.94
2023-04-22T11:28:23.163Z,17.88
2023-04-22T11:30:51.533Z,17.89
2023-04-22T11:33:19.541Z,17.90
2023-04-22T11:35:49.091Z,17.89
2023-04-22T11:38:17.078Z,17.89
2023-04-22T11:40:46.963Z,17.86
2023-04-22T11:43:16.481Z,17.81
2023-04-22T11:45:44.571Z,17.80
2023-04-22T11:48:12.574Z,17.79
2023-04-22T11:50:41.152Z,17.75
2023-04-22T11:53:19.165Z,17.69
2023-04-22T11:55:48.146Z,17.66
2023-04-22T11:58:20.546Z,17.68
2023-04-22T12:00:49.387Z,17.70
2023-04-22T12:03:21.669Z,17.68
2023-04-22T12:05:53.622Z,17.69
2023-04-22T12:08:22.540Z,17.63
2023-04-22T12:10:57.012Z,17.56
2023-04-22T12:13:26.112Z,17.56
2023-04-22T12:15:55.228Z,17.55
2023-04-22T12:18:32.897Z,17.53
2023-04-22T12:21:03.034Z,17.47
2023-04-22T12:23:31.908Z,17.47
2023-04-22T12:26:01.972Z,17.51
2023-04-22T12:28:30.957Z,17.50
2023-04-22T12:30:59.541Z,17.49
2023-04-22T12:33:27.925Z,17.48
2023-04-22T12:35:56.061Z,17.49
2023-04-22T12:38:24.013Z,17.53
2023-04-22T12:40:54.077Z,17.53
2023-04-22T12:43:22.090Z,17.53
2023-04-22T12:45:50.363Z,17.54
2023-04-22T12:48:18.376Z,17.56
2023-04-22T12:50:46.563Z,17.59
2023-04-22T12:53:14.823Z,17.60
2023-04-22T12:55:45.455Z,17.62
2023-04-22T12:58:14.794Z,17.68
2023-04-22T13:00:42.993Z,17.74
2023-04-22T13:03:11.729Z,17.85
2023-04-22T13:05:40.540Z,17.96
2023-04-22T13:08:08.493Z,18.04
2023-04-22T13:10:36.625Z,18.10
2023-04-22T13:15:36.704Z,18.43
2023-04-22T13:18:04.583Z,18.68
2023-04-22T13:20:32.579Z,18.85
2023-04-22T13:23:02.520Z,18.94
2023-04-22T13:25:30.797Z,18.91
2023-04-22T13:27:58.797Z,18.81
2023-04-22T13:30:26.931Z,18.67
2023-04-22T13:32:54.901Z,18.54
2023-04-22T13:35:23.222Z,18.52
2023-04-22T13:37:51.472Z,18.46
2023-04-22T13:40:19.650Z,18.36
2023-04-22T13:42:47.861Z,18.19
2023-04-22T13:45:15.990Z,18.15
2023-04-22T13:47:43.974Z,18.17
2023-04-22T13:50:12.096Z,18.24
2023-04-22T13:52:40.512Z,18.44
2023-04-22T13:55:08.861Z,18.67
2023-04-22T13:57:37.038Z,18.85
2023-04-22T14:00:05.478Z,18.91
2023-04-22T14:02:40.061Z,18.89
2023-04-22T14:05:10.612Z,18.89
2023-04-22T14:07:38.872Z,19.00
2023-04-22T14:10:08.712Z,19.29
2023-04-22T14:12:38.180Z,19.65
2023-04-22T14:15:06.641Z,19.81
2023-04-22T14:17:35.164Z,19.78
2023-04-22T14:20:05.191Z,19.58
2023-04-22T14:22:33.446Z,19.43
2023-04-22T14:25:01.889Z,19.22
2023-04-22T14:27:30.433Z,18.99
2023-04-22T14:29:58.494Z,18.86
2023-04-22T14:32:26.513Z,18.82
2023-04-22T14:34:55.404Z,18.80
2023-04-22T14:37:23.926Z,18.78
2023-04-22T14:39:52.287Z,18.87
2023-04-22T14:42:20.692Z,19.01
2023-04-22T14:44:48.777Z,19.23
2023-04-22T14:47:16.932Z,19.51
2023-04-22T14:49:45.318Z,19.71
2023-04-22T14:52:13.388Z,19.89
2023-04-22T14:54:41.631Z,20.02
2023-04-22T14:57:09.733Z,20.05
2023-04-22T14:59:37.749Z,19.93
2023-04-22T15:02:06.423Z,19.81
2023-04-22T15:04:34.615Z,19.46
2023-04-22T15:07:03.654Z,19.24
2023-04-22T15:09:33.123Z,19.09
2023-04-22T15:12:04.920Z,18.89
2023-04-22T15:14:35.594Z,18.85
2023-04-22T15:17:03.722Z,18.92
2023-04-22T15:19:31.907Z,18.86
2023-04-22T15:22:00.006Z,18.85
2023-04-22T15:24:28.133Z,18.77
2023-04-22T15:26:57.002Z,18.62
2023-04-22T15:29:25.117Z,18.52
2023-04-22T15:31:54.567Z,18.43
2023-04-22T15:34:23.686Z,18.30
2023-04-22T15:36:51.708Z,18.19
2023-04-22T15:39:19.953Z,18.11
2023-04-22T15:41:47.968Z,18.03
2023-04-22T15:44:16.916Z,17.95
2023-04-22T15:46:45.804Z,17.89
2023-04-22T15:49:15.015Z,17.84
2023-04-22T15:51:43.437Z,17.80
2023-04-22T15:54:12.227Z,17.78
2023-04-22T15:56:40.755Z,17.77
2023-04-22T15:59:08.775Z,17.75
2023-04-22T16:01:38.193Z,17.71
2023-04-22T16:04:07.197Z,17.71
2023-04-22T16:06:36.694Z,17.70
2023-04-22T16:09:05.405Z,17.67
2023-04-22T16:11:33.740Z,17.69
2023-04-22T16:14:01.700Z,17.70
2023-04-22T16:16:29.760Z,17.70
2023-04-22T16:18:58.432Z,17.69
2023-04-22T16:21:26.481Z,17.63
2023-04-22T16:23:54.426Z,17.55
2023-04-22T16:26:22.361Z,17.47
2023-04-22T16:28:51.419Z,17.38
2023-04-22T16:31:22.867Z,17.29
2023-04-22T16:33:51.394Z,17.24
2023-04-22T16:36:19.666Z,17.20
2023-04-22T16:38:48.905Z,17.16
2023-04-22T16:41:16.995Z,17.13
2023-04-22T16:43:45.162Z,17.11
2023-04-22T16:46:13.378Z,17.10
2023-04-22T16:48:41.519Z,17.03
2023-04-22T16:51:09.736Z,16.95
2023-04-22T16:53:37.952Z,16.92
2023-04-22T16:56:06.352Z,16.88
2023-04-22T16:58:35.360Z,16.81
2023-04-22T17:01:04.009Z,16.73
2023-04-22T17:03:32.998Z,16.66
2023-04-22T17:06:02.354Z,16.60
2023-04-22T17:08:31.443Z,16.51
2023-04-22T17:10:59.835Z,16.40
2023-04-22T17:13:27.866Z,16.29
2023-04-22T17:15:56.164Z,16.20
2023-04-22T17:18:24.316Z,16.12
2023-04-22T17:20:52.301Z,16.06
2023-04-22T17:23:23.135Z,16.00
2023-04-22T17:25:51.393Z,15.96
2023-04-22T17:28:20.270Z,15.89
2023-04-22T17:30:48.554Z,15.84
2023-04-22T17:33:18.074Z,15.77
2023-04-22T17:35:47.852Z,15.68
2023-04-22T17:38:16.126Z,15.60
2023-04-22T17:40:44.912Z,15.54
2023-04-22T17:43:13.157Z,15.48
2023-04-22T17:45:41.300Z,15.41
2023-04-22T17:48:09.304Z,15.34
2023-04-22T17:50:37.962Z,15.26
2023-04-22T17:53:06.326Z,15.18
2023-04-22T17:55:35.456Z,15.17
2023-04-22T17:58:05.662Z,15.15
2023-04-22T18:00:35.626Z,15.13
2023-04-22T18:03:04.390Z,15.07
2023-04-22T18:05:32.789Z,15.00
2023-04-22T18:08:02.994Z,14.98
2023-04-22T18:10:31.572Z,14.97
2023-04-22T18:12:59.971Z,14.95
2023-04-22T18:15:28.370Z,14.94
2023-04-22T18:17:56.510Z,14.92
2023-04-22T18:20:24.504Z,14.90
2023-04-22T18:22:52.702Z,14.89
2023-04-22T18:25:21.069Z,14.88
2023-04-22T18:27:50.743Z,14.87
2023-04-22T18:30:18.773Z,14.83
2023-04-22T18:32:47.113Z,14.78
2023-04-22T18:35:16.252Z,14.73
2023-04-22T18:37:44.547Z,14.70
2023-04-22T18:40:12.727Z,14.65
2023-04-22T18:42:44.974Z,14.64
2023-04-22T18:45:13.308Z,14.64
2023-04-22T18:47:47.492Z,14.65
2023-04-22T18:50:15.979Z,14.67
2023-04-22T18:52:44.067Z,14.67
2023-04-22T18:55:12.281Z,14.68
2023-04-22T18:57:41.573Z,14.69
2023-04-22T19:00:10.279Z,14.69
2023-04-22T19:02:41.515Z,14.69
2023-04-22T19:05:10.868Z,14.69
2023-04-22T19:07:41.234Z,14.69
2023-04-22T19:10:10.407Z,14.69
2023-04-22T19:12:38.427Z,14.68
2023-04-22T19:15:07.038Z,14.68
2023-04-22T19:17:35.639Z,14.68
2023-04-22T19:20:06.145Z,14.67
2023-04-22T19:22:34.696Z,14.67
2023-04-22T19:25:02.663Z,14.67
2023-04-22T19:27:30.961Z,14.65
2023-04-22T19:29:58.939Z,14.60
2023-04-22T19:32:26.996Z,14.52
2023-04-22T19:34:55.317Z,14.48
2023-04-22T19:37:23.923Z,14.48
2023-04-22T19:39:51.859Z,14.45
2023-04-22T19:42:20.992Z,14.41
2023-04-22T19:44:49.137Z,14.39
2023-04-22T19:47:17.465Z,14.39
2023-04-22T19:49:46.309Z,14.39
2023-04-22T19:52:15.810Z,14.39
2023-04-22T19:54:45.938Z,14.38
2023-04-22T19:57:15.684Z,14.37
2023-04-22T19:59:43.569Z,14.36
2023-04-22T20:02:11.829Z,14.36
2023-04-22T20:04:41.238Z,14.34
2023-04-22T20:07:09.392Z,14.32
2023-04-22T20:09:38.885Z,14.30
2023-04-22T20:12:07.041Z,14.30
2023-04-22T20:14:35.112Z,14.32
2023-04-22T20:17:03.197Z,14.35
2023-04-22T20:19:31.662Z,14.37
2023-04-22T20:22:00.034Z,14.38
2023-04-22T20:24:28.575Z,14.38
2023-04-22T20:26:56.815Z,14.37
2023-04-22T20:29:25.686Z,14.36
2023-04-22T20:31:55.778Z,14.37
2023-04-22T20:34:24.408Z,14.36
2023-04-22T20:36:54.897Z,14.35
2023-04-22T20:39:23.038Z,14.34
2023-04-22T20:41:52.933Z,14.32
2023-04-22T20:44:21.086Z,14.31
2023-04-22T20:46:49.062Z,14.30
2023-04-22T20:49:17.538Z,14.30
2023-04-22T20:51:45.587Z,14.29
2023-04-22T20:54:27.903Z,14.28
2023-04-22T20:56:58.007Z,14.26
2023-04-22T20:59:26.165Z,14.24
2023-04-22T21:01:54.854Z,14.20
2023-04-22T21:04:24.127Z,14.17
2023-04-22T21:06:52.879Z,14.16
2023-04-22T21:09:21.069Z,14.14
2023-04-22T21:11:50.296Z,14.11
2023-04-22T21:14:24.310Z,14.08
2023-04-22T21:16:53.997Z,14.09
2023-04-22T21:19:22.042Z,14.09
2023-04-22T21:21:50.236Z,14.07
2023-04-22T21:24:18.489Z,14.04
2023-04-22T21:26:47.399Z,13.98
2023-04-22T21:29:15.552Z,13.92
2023-04-22T21:31:51.503Z,13.89
2023-04-22T21:34:32.931Z,13.91
2023-04-22T21:37:00.902Z,13.93
2023-04-22T21:39:29.440Z,13.92
2023-04-22T21:41:58.467Z,13.90
2023-04-22T21:44:26.514Z,13.88
2023-04-22T21:46:54.445Z,13.86
2023-04-22T21:49:23.297Z,13.85
2023-04-22T21:51:51.478Z,13.85
2023-04-22T21:54:19.400Z,13.84
2023-04-22T21:56:47.479Z,13.84
2023-04-22T21:59:15.478Z,13.83
2023-04-22T22:01:43.429Z,13.80
2023-04-22T22:04:13.982Z,13.78
2023-04-22T22:06:44.231Z,13.75
2023-04-22T22:09:15.336Z,13.66
2023-04-22T22:11:44.193Z,13.45
2023-04-22T22:14:12.216Z,13.21
2023-04-22T22:16:40.399Z,13.10
2023-04-22T22:19:11.258Z,13.02
2023-04-22T22:21:39.166Z,12.98
2023-04-22T22:24:09.484Z,12.97
2023-04-22T22:26:41.194Z,12.97
2023-04-22T22:29:15.546Z,12.96
2023-04-22T22:31:43.993Z,12.87
2023-04-22T22:34:11.895Z,12.85
2023-04-22T22:36:40.436Z,12.87
2023-04-22T22:39:10.457Z,12.89
2023-04-22T22:41:39.135Z,12.91
2023-04-22T22:44:08.159Z,12.91
2023-04-22T22:46:36.136Z,12.92
2023-04-22T22:49:04.383Z,12.93
2023-04-22T22:51:32.863Z,12.93
2023-04-22T22:54:01.094Z,12.93
2023-04-22T22:56:29.416Z,12.90
2023-04-22T22:58:57.452Z,12.88
2023-04-22T23:01:25.738Z,12.85
2023-04-22T23:03:53.869Z,12.81
2023-04-22T23:06:22.088Z,12.79
2023-04-22T23:08:50.340Z,12.76
2023-04-22T23:11:18.600Z,12.71
2023-04-22T23:13:47.933Z,12.66
2023-04-22T23:16:16.591Z,12.62
2023-04-22T23:18:44.771Z,12.58
2023-04-22T23:21:12.847Z,12.54
2023-04-22T23:23:40.832Z,12.50
2023-04-22T23:26:09.157Z,12.46
2023-04-22T23:28:37.197Z,12.43
2023-04-22T23:31:05.287Z,12.41
2023-04-22T23:33:34.424Z,12.39
2023-04-22T23:36:03.502Z,12.36
2023-04-22T23:38:31.559Z,12.35
2023-04-22T23:40:59.575Z,12.34
2023-04-22T23:43:27.540Z,12.34
2023-04-22T23:45:55.825Z,12.34
2023-04-22T23:48:24.049Z,12.32
2023-04-22T23:50:52.151Z,12.30
2023-04-22T23:53:20.341Z,12.29
2023-04-22T23:55:48.810Z,12.26
2023-04-22T23:58:17.130Z,12.22
